Time;durP1;ratioP1;P1;durP2;ratioP2;P2;SDS_P1;SDS_P2;PMS_P1;PMS_P2;Temp;Humidity;BMP_temperature;BMP_pressure;BME280_temperature;BME280_humidity;BME280_pressure;Samples;Min_cycle;Max_cycle;Signal;HPM_P1;HPM_P2
2021/08/22 00:01:13;;;;;;;;;;;;;;;;;;5093759;28;19919;-65
2021/08/22 00:03:57;;;;;;;;;;;;;;;;;;5093819;28;19919;-65
2021/08/22 00:06:41;;;;;;;;;;;;;;;;;;5093574;28;19923;-65
2021/08/22 00:09:25;;;;;;;;;;;;;;;;;;5093712;28;19923;-65
2021/08/22 00:12:09;;;;;;;;;;;;;;;;;;5093472;28;19919;-66
2021/08/22 00:14:53;;;;;;;;;;;;;;;;;;5099685;28;19919;-66
2021/08/22 00:17:38;;;;;;;;;;;;;;;;;;5093435;28;19919;-65
2021/08/22 00:20:23;;;;;;;;;;;;;;;;;;5093469;28;19919;-65
2021/08/22 00:23:07;;;;;;;;;;;;;;;;;;5093262;28;19919;-65
2021/08/22 00:25:52;;;;;;;;;;;;;;;;;;5093211;28;19919;-64
2021/08/22 00:28:36;;;;;;;;;;;;;;;;;;5093233;28;19919;-65
2021/08/22 00:31:20;;;;;;;;;;;;;;;;;;5093303;28;19969;-64
2021/08/22 00:34:04;;;;;;;;;;;;;;;;;;5093199;28;19919;-64
2021/08/22 00:36:48;;;;;;;;;;;;;;;;;;5098902;28;19939;-65
2021/08/22 00:39:33;;;;;;;;;;;;;;;;;;5093196;28;19920;-65
2021/08/22 00:42:17;;;;;;;;;;;;;;;;;;5093289;28;19920;-65
2021/08/22 00:45:01;;;;;;;;;;;;;;;;;;5093100;28;20421;-65
2021/08/22 00:47:46;;;;;;;;;;;;;;;;;;5092907;28;19923;-65
2021/08/22 00:50:32;;;;;;;;;;;;;;;;;;5092953;28;19919;-65
2021/08/22 00:53:17;;;;;;;;;;;;;;;;;;5092772;28;20092;-65
2021/08/22 00:56:04;;;;;;;;;;;;;;;;;;5092891;28;20295;-65
2021/08/22 00:58:48;;;;;;;;;;;;;;;;;;5092780;28;19919;-65
2021/08/22 01:01:32;;;;;;;;;;;;;;;;;;5092549;28;19919;-65
2021/08/22 01:04:16;;;;;;;;;;;;;;;;;;5092716;28;19919;-65
2021/08/22 01:07:01;;;;;;;;;;;;;;;;;;5092613;28;19923;-64
2021/08/22 01:09:46;;;;;;;;;;;;;;;;;;5092907;28;19919;-64
2021/08/22 01:12:30;;;;;;;;;;;;;;;;;;5092576;28;19969;-64
2021/08/22 01:15:15;;;;;;;;;;;;;;;;;;5092596;28;19919;-64
2021/08/22 01:17:59;;;;;;;;;;;;;;;;;;5092652;28;19919;-64
2021/08/22 01:20:43;;;;;;;;;;;;;;;;;;5092528;28;20287;-62
2021/08/22 01:23:28;;;;;;;;;;;;;;;;;;5092487;28;20287;-64
2021/08/22 01:26:12;;;;;;;;;;;;;;;;;;5092349;28;19923;-64
2021/08/22 01:28:56;;;;;;;;;;;;;;;;;;5092431;28;19919;-65
2021/08/22 01:31:41;;;;;;;;;;;;;;;;;;5092399;28;19923;-64
2021/08/22 01:34:25;;;;;;;;;;;;;;;;;;5098333;28;19923;-64
2021/08/22 01:37:09;;;;;;;;;;;;;;;;;;5099149;28;19919;-65
2021/08/22 01:39:54;;;;;;;;;;;;;;;;;;5092349;28;19919;-64
2021/08/22 01:42:38;;;;;;;;;;;;;;;;;;5092299;28;19920;-66
2021/08/22 01:45:22;;;;;;;;;;;;;;;;;;5083695;28;19920;-64
2021/08/22 01:48:07;;;;;;;;;;;;;;;;;;5092255;28;19923;-64
2021/08/22 01:50:51;;;;;;;;;;;;;;;;;;5098912;28;19919;-65
2021/08/22 01:53:35;;;;;;;;;;;;;;;;;;5092216;28;19923;-66
2021/08/22 01:56:19;;;;;;;;;;;;;;;;;;5091157;28;20509;-64
2021/08/22 01:59:03;;;;;;;;;;;;;;;;;;5091241;28;19919;-65
2021/08/22 02:01:47;;;;;;;;;;;;;;;;;;5092063;28;19919;-66
2021/08/22 02:04:31;;;;;;;;;;;;;;;;;;5092067;28;19920;-65
2021/08/22 02:07:16;;;;;;;;;;;;;;;;;;5092074;28;19923;-65
2021/08/22 02:10:00;;;;;;;;;;;;;;;;;;5092115;28;19919;-65
2021/08/22 02:12:44;;;;;;;;;;;;;;;;;;5094515;28;19919;-65
2021/08/22 02:15:28;;;;;;;;;;;;;;;;;;5095792;28;19935;-65
2021/08/22 02:18:15;;;;;;;;;;;;;;;;;;5095845;28;19919;-66
2021/08/22 02:21:00;;;;;;;;;;;;;;;;;;5095811;28;19919;-66
2021/08/22 02:23:44;;;;;;;;;;;;;;;;;;5094841;28;19919;-66
2021/08/22 02:26:28;;;;;;;;;;;;;;;;;;5095494;28;19923;-67
2021/08/22 02:29:13;;;;;;;;;;;;;;;;;;5095544;28;19919;-66
2021/08/22 02:31:57;;;;;;;;;;;;;;;;;;5095470;28;19920;-65
2021/08/22 02:34:41;;;;;;;;;;;;;;;;;;5095549;28;19998;-65
2021/08/22 02:37:25;;;;;;;;;;;;;;;;;;5101175;28;19923;-65
2021/08/22 02:40:10;;;;;;;;;;;;;;;;;;5095421;28;19919;-65
2021/08/22 02:42:54;;;;;;;;;;;;;;;;;;5094786;28;19919;-65
2021/08/22 02:45:39;;;;;;;;;;;;;;;;;;5094189;28;19919;-66
2021/08/22 02:48:23;;;;;;;;;;;;;;;;;;5100769;28;20399;-64
2021/08/22 02:51:07;;;;;;;;;;;;;;;;;;5095332;28;19919;-66
2021/08/22 02:53:51;;;;;;;;;;;;;;;;;;5095127;28;19919;-66
2021/08/22 02:56:35;;;;;;;;;;;;;;;;;;5095095;28;19925;-65
2021/08/22 02:59:20;;;;;;;;;;;;;;;;;;5095399;28;19919;-66
2021/08/22 03:02:04;;;;;;;;;;;;;;;;;;5093880;28;19927;-65
2021/08/22 03:04:48;;;;;;;;;;;;;;;;;;5100777;28;19919;-65
2021/08/22 03:07:32;;;;;;;;;;;;;;;;;;5094801;28;19923;-65
2021/08/22 03:10:16;;;;;;;;;;;;;;;;;;5094877;28;19919;-65
2021/08/22 03:13:01;;;;;;;;;;;;;;;;;;5094663;28;19919;-65
2021/08/22 03:15:45;;;;;;;;;;;;;;;;;;5094784;28;19920;-65
2021/08/22 03:18:29;;;;;;;;;;;;;;;;;;5094605;28;20283;-65
2021/08/22 03:21:13;;;;;;;;;;;;;;;;;;5094678;28;20279;-65
2021/08/22 03:23:57;;;;;;;;;;;;;;;;;;5094408;28;19919;-64
2021/08/22 03:26:42;;;;;;;;;;;;;;;;;;5094352;28;19958;-65
2021/08/22 03:29:27;;;;;;;;;;;;;;;;;;5094451;28;19927;-65
2021/08/22 03:32:11;;;;;;;;;;;;;;;;;;5097766;28;19919;-64
2021/08/22 03:34:56;;;;;;;;;;;;;;;;;;5094311;28;19939;-65
2021/08/22 03:37:40;;;;;;;;;;;;;;;;;;5094332;28;19920;-65
2021/08/22 03:40:24;;;;;;;;;;;;;;;;;;5094218;28;20283;-65
2021/08/22 03:43:09;;;;;;;;;;;;;;;;;;5094080;28;19978;-66
2021/08/22 03:45:53;;;;;;;;;;;;;;;;;;5094167;28;20288;-65
2021/08/22 03:48:38;;;;;;;;;;;;;;;;;;5094011;28;20272;-66
2021/08/22 03:51:23;;;;;;;;;;;;;;;;;;5094035;28;19920;-65
2021/08/22 03:54:07;;;;;;;;;;;;;;;;;;5093922;28;19920;-65
2021/08/22 03:56:52;;;;;;;;;;;;;;;;;;5093974;28;19919;-66
2021/08/22 03:59:36;;;;;;;;;;;;;;;;;;5093807;28;19930;-65
2021/08/22 04:02:21;;;;;;;;;;;;;;;;;;5093772;28;19919;-66
2021/08/22 04:05:26;;;;;;;;;;;;;;;;;;5099814;28;19930;-66
2021/08/22 04:08:10;;;;;;;;;;;;;;;;;;5093673;28;19923;-66
2021/08/22 04:10:54;;;;;;;;;;;;;;;;;;5093926;28;19935;-66
2021/08/22 04:13:38;;;;;;;;;;;;;;;;;;5093584;28;19935;-66
2021/08/22 04:16:23;;;;;;;;;;;;;;;;;;5093779;28;19920;-66
2021/08/22 04:19:07;;;;;;;;;;;;;;;;;;5093569;28;19920;-64
2021/08/22 04:21:51;;;;;;;;;;;;;;;;;;5093404;28;19919;-63
2021/08/22 04:24:35;;;;;;;;;;;;;;;;;;5093439;28;19923;-65
2021/08/22 04:27:19;;;;;;;;;;;;;;;;;;5093213;28;20386;-65
2021/08/22 04:30:04;;;;;;;;;;;;;;;;;;5093268;28;20398;-65
2021/08/22 04:32:48;;;;;;;;;;;;;;;;;;5094950;28;19920;-65
2021/08/22 04:35:33;;;;;;;;;;;;;;;;;;5092715;28;19920;-66
2021/08/22 04:38:16;;;;;;;;;;;;;;;;;;5093210;28;19919;-66
2021/08/22 04:41:01;;;;;;;;;;;;;;;;;;5093380;28;19920;-65
2021/08/22 04:43:45;;;;;;;;;;;;;;;;;;5093047;28;20291;-65
2021/08/22 04:46:29;;;;;;;;;;;;;;;;;;5092876;28;19919;-64
2021/08/22 04:49:13;;;;;;;;;;;;;;;;;;5093044;28;19919;-64
2021/08/22 04:51:58;;;;;;;;;;;;;;;;;;5092828;28;20366;-65
2021/08/22 04:54:43;;;;;;;;;;;;;;;;;;5093000;28;19919;-63
2021/08/22 04:57:27;;;;;;;;;;;;;;;;;;5092838;28;19935;-63
2021/08/22 05:00:11;;;;;;;;;;;;;;;;;;5092840;28;19919;-63
2021/08/22 05:02:56;;;;;;;;;;;;;;;;;;5092666;28;19920;-64
2021/08/22 05:05:40;;;;;;;;;;;;;;;;;;5092810;28;19918;-64
2021/08/22 05:08:25;;;;;;;;;;;;;;;;;;5092649;28;19923;-63
2021/08/22 05:11:09;;;;;;;;;;;;;;;;;;5092740;28;19919;-64
2021/08/22 05:13:53;;;;;;;;;;;;;;;;;;5092619;28;19919;-64
2021/08/22 05:16:37;;;;;;;;;;;;;;;;;;5092689;28;19920;-64
2021/08/22 05:19:22;;;;;;;;;;;;;;;;;;5092845;28;19920;-63
2021/08/22 05:22:06;;;;;;;;;;;;;;;;;;5092435;28;19923;-63
2021/08/22 05:24:50;;;;;;;;;;;;;;;;;;5092544;28;19919;-63
2021/08/22 05:27:34;;;;;;;;;;;;;;;;;;5092420;28;19923;-63
2021/08/22 05:30:18;;;;;;;;;;;;;;;;;;5092433;28;19935;-63
2021/08/22 05:33:04;;;;;;;;;;;;;;;;;;5094384;28;19920;-66
2021/08/22 05:35:48;;;;;;;;;;;;;;;;;;5091474;28;20283;-62
2021/08/22 05:38:32;;;;;;;;;;;;;;;;;;5083727;28;19919;-64
2021/08/22 05:41:16;;;;;;;;;;;;;;;;;;5091349;28;19919;-65
2021/08/22 05:44:01;;;;;;;;;;;;;;;;;;5099018;28;20387;-65
2021/08/22 05:46:45;;;;;;;;;;;;;;;;;;5092299;28;19923;-65
2021/08/22 05:49:30;;;;;;;;;;;;;;;;;;5095876;28;20299;-65
2021/08/22 05:52:14;;;;;;;;;;;;;;;;;;5096359;28;19920;-64
2021/08/22 05:54:58;;;;;;;;;;;;;;;;;;5096232;28;19923;-64
2021/08/22 05:57:43;;;;;;;;;;;;;;;;;;5102052;28;20276;-65
2021/08/22 06:00:28;;;;;;;;;;;;;;;;;;5096157;28;19920;-65
2021/08/22 06:03:12;;;;;;;;;;;;;;;;;;5096147;28;20395;-65
2021/08/22 06:05:56;;;;;;;;;;;;;;;;;;5096067;28;19923;-65
2021/08/22 06:08:40;;;;;;;;;;;;;;;;;;5096018;28;19986;-64
2021/08/22 06:11:25;;;;;;;;;;;;;;;;;;5095981;28;20391;-65
2021/08/22 06:14:09;;;;;;;;;;;;;;;;;;5095907;28;19919;-65
2021/08/22 06:16:53;;;;;;;;;;;;;;;;;;5095940;28;19919;-65
2021/08/22 06:19:37;;;;;;;;;;;;;;;;;;5095808;28;19934;-65
2021/08/22 06:22:21;;;;;;;;;;;;;;;;;;5095790;28;19919;-65
2021/08/22 06:25:05;;;;;;;;;;;;;;;;;;5095725;28;20295;-65
2021/08/22 06:27:49;;;;;;;;;;;;;;;;;;5095498;28;19923;-65
2021/08/22 06:30:33;;;;;;;;;;;;;;;;;;5101391;28;19919;-65
2021/08/22 06:33:18;;;;;;;;;;;;;;;;;;5095583;28;19919;-65
2021/08/22 06:36:02;;;;;;;;;;;;;;;;;;5095533;28;20279;-66
2021/08/22 06:38:46;;;;;;;;;;;;;;;;;;5101324;28;19923;-66
2021/08/22 06:41:31;;;;;;;;;;;;;;;;;;5095323;28;20395;-64
2021/08/22 06:44:15;;;;;;;;;;;;;;;;;;5094388;28;19923;-64
2021/08/22 06:46:59;;;;;;;;;;;;;;;;;;5094206;28;19931;-65
2021/08/22 06:49:44;;;;;;;;;;;;;;;;;;5095325;28;19920;-64
2021/08/22 06:52:29;;;;;;;;;;;;;;;;;;5095115;28;19919;-65
2021/08/22 06:55:13;;;;;;;;;;;;;;;;;;5095206;28;19927;-64
2021/08/22 06:57:57;;;;;;;;;;;;;;;;;;5100780;28;19920;-65
2021/08/22 07:00:42;;;;;;;;;;;;;;;;;;5095026;28;19919;-65
2021/08/22 07:03:27;;;;;;;;;;;;;;;;;;5094938;28;19978;-65
2021/08/22 07:06:11;;;;;;;;;;;;;;;;;;5094915;28;20272;-65
2021/08/22 07:08:56;;;;;;;;;;;;;;;;;;5094926;28;19927;-65
2021/08/22 07:11:40;;;;;;;;;;;;;;;;;;5094653;28;19920;-65
2021/08/22 07:14:24;;;;;;;;;;;;;;;;;;5094857;28;20271;-65
2021/08/22 07:17:09;;;;;;;;;;;;;;;;;;5093701;28;19926;-65
2021/08/22 07:19:53;;;;;;;;;;;;;;;;;;5094727;28;19920;-65
2021/08/22 07:22:38;;;;;;;;;;;;;;;;;;5094528;28;19919;-64
2021/08/22 07:25:22;;;;;;;;;;;;;;;;;;5094620;28;19919;-65
2021/08/22 07:28:06;;;;;;;;;;;;;;;;;;5094368;28;19927;-65
2021/08/22 07:30:51;;;;;;;;;;;;;;;;;;5094525;28;19919;-65
2021/08/22 07:33:35;;;;;;;;;;;;;;;;;;5094295;28;19919;-65
2021/08/22 07:36:21;;;;;;;;;;;;;;;;;;5094456;28;19919;-64
2021/08/22 07:39:05;;;;;;;;;;;;;;;;;;5093588;28;19935;-65
2021/08/22 07:41:49;;;;;;;;;;;;;;;;;;5094218;28;19919;-65
2021/08/22 07:44:33;;;;;;;;;;;;;;;;;;5093178;28;19919;-64
2021/08/22 07:47:18;;;;;;;;;;;;;;;;;;5093123;28;19923;-64
2021/08/22 07:50:02;;;;;;;;;;;;;;;;;;5093105;28;19919;-65
2021/08/22 07:52:46;;;;;;;;;;;;;;;;;;5093011;28;19938;-64
2021/08/22 07:55:31;;;;;;;;;;;;;;;;;;5093928;28;20391;-68
2021/08/22 07:58:15;;;;;;;;;;;;;;;;;;5094011;28;19919;-67
2021/08/22 08:00:59;;;;;;;;;;;;;;;;;;5093964;28;20130;-68
2021/08/22 08:03:43;;;;;;;;;;;;;;;;;;5093657;28;19919;-68
2021/08/22 08:06:28;;;;;;;;;;;;;;;;;;5093883;28;19919;-65
2021/08/22 08:09:12;;;;;;;;;;;;;;;;;;5093735;28;19924;-67
2021/08/22 08:11:56;;;;;;;;;;;;;;;;;;5092786;28;19939;-67
2021/08/22 08:14:40;;;;;;;;;;;;;;;;;;5099387;28;19919;-67
2021/08/22 08:17:24;;;;;;;;;;;;;;;;;;5093605;28;20280;-67
2021/08/22 08:20:08;;;;;;;;;;;;;;;;;;5093462;28;20279;-68
2021/08/22 08:22:52;;;;;;;;;;;;;;;;;;5092361;28;19921;-67
2021/08/22 08:25:37;;;;;;;;;;;;;;;;;;5092199;28;19919;-70
2021/08/22 08:28:22;;;;;;;;;;;;;;;;;;5093350;28;19923;-68
2021/08/22 08:31:06;;;;;;;;;;;;;;;;;;5093264;28;19923;-69
2021/08/22 08:33:50;;;;;;;;;;;;;;;;;;5093301;28;19934;-71
2021/08/22 08:36:34;;;;;;;;;;;;;;;;;;5093206;28;19920;-70
2021/08/22 08:39:19;;;;;;;;;;;;;;;;;;5093229;28;19919;-69
2021/08/22 08:42:03;;;;;;;;;;;;;;;;;;5093053;28;19919;-71
2021/08/22 08:44:47;;;;;;;;;;;;;;;;;;5093138;28;19919;-71
2021/08/22 08:47:31;;;;;;;;;;;;;;;;;;5091963;28;20399;-71
2021/08/22 08:50:15;;;;;;;;;;;;;;;;;;5092969;28;19923;-68
2021/08/22 08:53:00;;;;;;;;;;;;;;;;;;5092856;28;19934;-69
2021/08/22 08:55:44;;;;;;;;;;;;;;;;;;5084610;28;19978;-69
2021/08/22 08:58:28;;;;;;;;;;;;;;;;;;5092179;28;19919;-69
2021/08/22 09:01:13;;;;;;;;;;;;;;;;;;5092773;28;19919;-70
2021/08/22 09:03:57;;;;;;;;;;;;;;;;;;5092669;28;20280;-70
2021/08/22 09:06:41;;;;;;;;;;;;;;;;;;5092625;28;20284;-70
2021/08/22 09:09:25;;;;;;;;;;;;;;;;;;5088196;28;19924;-71
2021/08/22 09:12:09;;;;;;;;;;;;;;;;;;5082640;28;20399;-72
2021/08/22 09:14:53;;;;;;;;;;;;;;;;;;5076693;28;19919;-72
2021/08/22 09:17:37;;;;;;;;;;;;;;;;;;5075904;28;19935;-71
2021/08/22 09:20:21;;;;;;;;;;;;;;;;;;5082169;28;19919;-70
2021/08/22 09:23:06;;;;;;;;;;;;;;;;;;5076828;28;19939;-71
2021/08/22 09:25:51;;;;;;;;;;;;;;;;;;5096646;28;19931;-71
2021/08/22 09:28:35;;;;;;;;;;;;;;;;;;5093438;28;20296;-71
2021/08/22 09:31:19;;;;;;;;;;;;;;;;;;5072133;28;19919;-70
2021/08/22 09:34:04;;;;;;;;;;;;;;;;;;5072258;28;19935;-72
2021/08/22 09:36:48;;;;;;;;;;;;;;;;;;5071764;28;19920;-70
2021/08/22 09:39:33;;;;;;;;;;;;;;;;;;5072119;28;19919;-71
2021/08/22 09:42:18;;;;;;;;;;;;;;;;;;5074081;28;19943;-71
2021/08/22 09:45:04;;;;;;;;;;;;;;;;;;5091550;28;20415;-71
2021/08/22 09:47:49;;;;;;;;;;;;;;;;;;5075851;28;19924;-71
2021/08/22 09:50:34;;;;;;;;;;;;;;;;;;5076146;28;19919;-71
2021/08/22 09:53:18;;;;;;;;;;;;;;;;;;5078644;28;20406;-71
2021/08/22 09:56:03;;;;;;;;;;;;;;;;;;5080051;28;19919;-73
2021/08/22 09:58:47;;;;;;;;;;;;;;;;;;5078753;28;19920;-72
2021/08/22 10:01:32;;;;;;;;;;;;;;;;;;5088895;28;19919;-72
2021/08/22 10:04:16;;;;;;;;;;;;;;;;;;5084666;28;19930;-71
2021/08/22 10:07:00;;;;;;;;;;;;;;;;;;5073986;28;19945;-72
2021/08/22 10:09:44;;;;;;;;;;;;;;;;;;5072041;28;19919;-71
2021/08/22 10:12:28;;;;;;;;;;;;;;;;;;5075940;28;19927;-71
2021/08/22 10:15:12;;;;;;;;;;;;;;;;;;5092136;28;20391;-71
2021/08/22 10:17:57;;;;;;;;;;;;;;;;;;5091846;28;19920;-71
2021/08/22 10:20:41;;;;;;;;;;;;;;;;;;5092035;28;19915;-72
2021/08/22 10:23:25;;;;;;;;;;;;;;;;;;5081714;28;19990;-70
2021/08/22 10:26:09;;;;;;;;;;;;;;;;;;5075509;28;19931;-70
2021/08/22 10:28:59;;;;;;;;;;;;;;;;;;5077080;28;19923;-73
2021/08/22 10:31:43;;;;;;;;;;;;;;;;;;5082201;28;19924;-72
2021/08/22 10:34:28;;;;;;;;;;;;;;;;;;5073242;28;19919;-73
2021/08/22 10:37:12;;;;;;;;;;;;;;;;;;5080737;28;20399;-73
2021/08/22 10:39:57;;;;;;;;;;;;;;;;;;5087756;28;19919;-73
2021/08/22 10:42:42;;;;;;;;;;;;;;;;;;5085183;28;20300;-73
2021/08/22 10:45:26;;;;;;;;;;;;;;;;;;5075050;28;20292;-73
2021/08/22 10:48:10;;;;;;;;;;;;;;;;;;5077861;28;19923;-73
2021/08/22 10:50:54;;;;;;;;;;;;;;;;;;5079607;28;20096;-73
2021/08/22 10:53:39;;;;;;;;;;;;;;;;;;5092848;28;20295;-73
2021/08/22 10:56:23;;;;;;;;;;;;;;;;;;5075343;28;19920;-73
2021/08/22 10:59:09;;;;;;;;;;;;;;;;;;5091007;28;20299;-73
2021/08/22 11:01:53;;;;;;;;;;;;;;;;;;5080999;28;19920;-73
2021/08/22 11:04:37;;;;;;;;;;;;;;;;;;5073724;28;19919;-73
2021/08/22 11:07:21;;;;;;;;;;;;;;;;;;5074662;28;19940;-73
2021/08/22 11:10:05;;;;;;;;;;;;;;;;;;5074567;28;19987;-73
2021/08/22 11:12:50;;;;;;;;;;;;;;;;;;5076309;28;19935;-73
2021/08/22 11:15:35;;;;;;;;;;;;;;;;;;5087106;28;20304;-72
2021/08/22 11:18:19;;;;;;;;;;;;;;;;;;5084018;28;19979;-73
2021/08/22 11:21:03;;;;;;;;;;;;;;;;;;5074261;28;20280;-73
2021/08/22 11:23:48;;;;;;;;;;;;;;;;;;5073336;28;20406;-72
2021/08/22 11:26:32;;;;;;;;;;;;;;;;;;5077789;28;19923;-72
2021/08/22 11:29:16;;;;;;;;;;;;;;;;;;5074264;28;19943;-72
2021/08/22 11:32:00;;;;;;;;;;;;;;;;;;5074050;28;19935;-73
2021/08/22 11:34:44;;;;;;;;;;;;;;;;;;5074411;28;19919;-73
2021/08/22 11:37:30;;;;;;;;;;;;;;;;;;5073005;28;19919;-72
2021/08/22 11:40:14;;;;;;;;;;;;;;;;;;5073051;28;19919;-72
2021/08/22 11:42:58;;;;;;;;;;;;;;;;;;5073865;28;19919;-73
2021/08/22 11:45:44;;;;;;;;;;;;;;;;;;5081390;28;19919;-73
2021/08/22 11:48:29;;;;;;;;;;;;;;;;;;5083150;28;19939;-73
2021/08/22 11:51:13;;;;;;;;;;;;;;;;;;5073952;28;19919;-73
2021/08/22 11:53:57;;;;;;;;;;;;;;;;;;5080494;28;19920;-73
2021/08/22 11:56:41;;;;;;;;;;;;;;;;;;5077215;28;19923;-73
2021/08/22 11:59:25;;;;;;;;;;;;;;;;;;5074712;28;19920;-73
2021/08/22 12:02:10;;;;;;;;;;;;;;;;;;5093331;28;19919;-73
2021/08/22 12:04:54;;;;;;;;;;;;;;;;;;5074857;28;19924;-73
2021/08/22 12:07:38;;;;;;;;;;;;;;;;;;5073469;28;19923;-73
2021/08/22 12:10:22;;;;;;;;;;;;;;;;;;5079159;28;19919;-72
2021/08/22 12:13:07;;;;;;;;;;;;;;;;;;5073279;28;19920;-73
2021/08/22 12:15:52;;;;;;;;;;;;;;;;;;5073277;28;19919;-73
2021/08/22 12:18:37;;;;;;;;;;;;;;;;;;5073102;28;20392;-73
2021/08/22 12:21:22;;;;;;;;;;;;;;;;;;5072191;28;19918;-73
2021/08/22 12:24:07;;;;;;;;;;;;;;;;;;5093156;28;19923;-73
2021/08/22 12:26:51;;;;;;;;;;;;;;;;;;5086635;28;20481;-72
2021/08/22 12:29:35;;;;;;;;;;;;;;;;;;5093207;28;19923;-72
2021/08/22 12:32:19;;;;;;;;;;;;;;;;;;5093192;28;19919;-73
2021/08/22 12:35:04;;;;;;;;;;;;;;;;;;5067758;28;19935;-72
2021/08/22 12:37:48;;;;;;;;;;;;;;;;;;5085211;28;19927;-73
2021/08/22 12:40:32;;;;;;;;;;;;;;;;;;5074631;28;19920;-73
2021/08/22 12:43:16;;;;;;;;;;;;;;;;;;5073030;28;19931;-73
2021/08/22 12:46:01;;;;;;;;;;;;;;;;;;5074432;28;19935;-73
2021/08/22 12:48:45;;;;;;;;;;;;;;;;;;5075956;28;19923;-73
2021/08/22 12:51:29;;;;;;;;;;;;;;;;;;5086239;28;20308;-71
2021/08/22 12:54:13;;;;;;;;;;;;;;;;;;5082616;28;19919;-72
2021/08/22 12:56:57;;;;;;;;;;;;;;;;;;5087865;28;19920;-72
2021/08/22 12:59:43;;;;;;;;;;;;;;;;;;5081644;28;19979;-72
2021/08/22 13:02:28;;;;;;;;;;;;;;;;;;5079683;28;19919;-72
2021/08/22 13:05:12;;;;;;;;;;;;;;;;;;5077510;28;19919;-72
2021/08/22 13:07:57;;;;;;;;;;;;;;;;;;5081735;28;19943;-73
2021/08/22 13:10:41;;;;;;;;;;;;;;;;;;5085329;28;19939;-72
2021/08/22 13:13:25;;;;;;;;;;;;;;;;;;5082101;28;20340;-71
2021/08/22 13:16:11;;;;;;;;;;;;;;;;;;5074026;28;20272;-72
2021/08/22 13:18:55;;;;;;;;;;;;;;;;;;5072236;28;19919;-71
2021/08/22 13:21:40;;;;;;;;;;;;;;;;;;5076762;28;20287;-71
2021/08/22 13:24:24;;;;;;;;;;;;;;;;;;5086990;28;20292;-72
2021/08/22 13:27:08;;;;;;;;;;;;;;;;;;5084924;28;19923;-72
2021/08/22 13:29:52;;;;;;;;;;;;;;;;;;5079651;28;19923;-72
2021/08/22 13:32:36;;;;;;;;;;;;;;;;;;5080661;28;20407;-72
2021/08/22 13:35:20;;;;;;;;;;;;;;;;;;5072058;28;19919;-72
2021/08/22 13:38:05;;;;;;;;;;;;;;;;;;5072563;28;19921;-72
2021/08/22 13:40:49;;;;;;;;;;;;;;;;;;5083200;28;19919;-72
2021/08/22 13:43:33;;;;;;;;;;;;;;;;;;5091797;28;19919;-72
2021/08/22 13:46:17;;;;;;;;;;;;;;;;;;5092280;28;20414;-72
2021/08/22 13:49:02;;;;;;;;;;;;;;;;;;5074713;28;20204;-72
2021/08/22 13:51:47;;;;;;;;;;;;;;;;;;5070941;28;19919;-72
2021/08/22 13:54:31;;;;;;;;;;;;;;;;;;5084992;28;19919;-72
2021/08/22 13:57:15;;;;;;;;;;;;;;;;;;5083543;28;19919;-72
2021/08/22 14:00:00;;;;;;;;;;;;;;;;;;5083596;28;19935;-70
2021/08/22 14:02:44;;;;;;;;;;;;;;;;;;5071785;28;19920;-72
2021/08/22 14:05:28;;;;;;;;;;;;;;;;;;5070905;28;19920;-72
2021/08/22 14:08:14;;;;;;;;;;;;;;;;;;5071938;28;19923;-73
2021/08/22 14:10:58;;;;;;;;;;;;;;;;;;5092284;28;19919;-72
2021/08/22 14:13:42;;;;;;;;;;;;;;;;;;5094864;28;19922;-71
2021/08/22 14:16:27;;;;;;;;;;;;;;;;;;5085374;28;19920;-72
2021/08/22 14:19:11;;;;;;;;;;;;;;;;;;5075600;28;19920;-72
2021/08/22 14:21:55;;;;;;;;;;;;;;;;;;5075436;28;19935;-72
2021/08/22 14:24:40;;;;;;;;;;;;;;;;;;5080172;28;20295;-72
2021/08/22 14:27:26;;;;;;;;;;;;;;;;;;5086860;28;19923;-72
2021/08/22 14:30:10;;;;;;;;;;;;;;;;;;5101523;28;20310;-72
2021/08/22 14:32:54;;;;;;;;;;;;;;;;;;5092068;28;19919;-72
2021/08/22 14:35:38;;;;;;;;;;;;;;;;;;5094546;28;19919;-71
2021/08/22 14:38:22;;;;;;;;;;;;;;;;;;5075238;28;19935;-72
2021/08/22 14:41:07;;;;;;;;;;;;;;;;;;5093065;28;19919;-72
2021/08/22 14:43:51;;;;;;;;;;;;;;;;;;5090497;28;19919;-72
2021/08/22 14:46:35;;;;;;;;;;;;;;;;;;5095286;28;20391;-72
2021/08/22 14:49:20;;;;;;;;;;;;;;;;;;5095831;28;20427;-70
2021/08/22 14:52:05;;;;;;;;;;;;;;;;;;5096539;28;19919;-72
2021/08/22 14:54:50;;;;;;;;;;;;;;;;;;5075344;28;19919;-72
2021/08/22 14:57:34;;;;;;;;;;;;;;;;;;5074826;28;19935;-72
2021/08/22 15:00:18;;;;;;;;;;;;;;;;;;5075176;28;19920;-72
2021/08/22 15:03:04;;;;;;;;;;;;;;;;;;5075852;28;20292;-72
2021/08/22 15:05:48;;;;;;;;;;;;;;;;;;5076532;28;20391;-72
2021/08/22 15:08:32;;;;;;;;;;;;;;;;;;5076367;28;19923;-72
2021/08/22 15:11:16;;;;;;;;;;;;;;;;;;5088439;28;19924;-72
2021/08/22 15:14:01;;;;;;;;;;;;;;;;;;5084626;28;19919;-72
2021/08/22 15:16:45;;;;;;;;;;;;;;;;;;5094757;28;19920;-72
2021/08/22 15:19:29;;;;;;;;;;;;;;;;;;5093329;28;19919;-72
2021/08/22 15:22:13;;;;;;;;;;;;;;;;;;5074477;28;19920;-72
2021/08/22 15:24:57;;;;;;;;;;;;;;;;;;5074239;28;19920;-71
2021/08/22 15:27:41;;;;;;;;;;;;;;;;;;5078318;28;19978;-72
2021/08/22 15:30:26;;;;;;;;;;;;;;;;;;5074146;28;19931;-72
2021/08/22 15:33:10;;;;;;;;;;;;;;;;;;5075967;28;19927;-72
2021/08/22 15:35:54;;;;;;;;;;;;;;;;;;5090447;28;20390;-72
2021/08/22 15:38:38;;;;;;;;;;;;;;;;;;5094448;28;19919;-72
2021/08/22 15:41:22;;;;;;;;;;;;;;;;;;5078444;28;20428;-72
2021/08/22 15:44:07;;;;;;;;;;;;;;;;;;5097390;28;19931;-72
2021/08/22 15:46:51;;;;;;;;;;;;;;;;;;5074814;28;19920;-72
2021/08/22 15:49:35;;;;;;;;;;;;;;;;;;5077735;28;19923;-72
2021/08/22 15:52:21;;;;;;;;;;;;;;;;;;5078868;28;19919;-72
2021/08/22 15:55:05;;;;;;;;;;;;;;;;;;5073872;28;19919;-72
2021/08/22 15:57:49;;;;;;;;;;;;;;;;;;5078216;28;19921;-72
2021/08/22 16:00:33;;;;;;;;;;;;;;;;;;5072504;28;19920;-71
2021/08/22 16:03:17;;;;;;;;;;;;;;;;;;5061609;28;19935;-70
2021/08/22 16:06:01;;;;;;;;;;;;;;;;;;5098162;28;19919;-71
2021/08/22 16:08:47;;;;;;;;;;;;;;;;;;5102849;28;19938;-72
2021/08/22 16:11:31;;;;;;;;;;;;;;;;;;5091735;28;20303;-71
2021/08/22 16:14:16;;;;;;;;;;;;;;;;;;5099565;28;19990;-72
2021/08/22 16:17:00;;;;;;;;;;;;;;;;;;5093662;28;19919;-72
2021/08/22 16:19:44;;;;;;;;;;;;;;;;;;5093498;28;19919;-72
2021/08/22 16:22:28;;;;;;;;;;;;;;;;;;5093562;28;19919;-72
2021/08/22 16:25:13;;;;;;;;;;;;;;;;;;5093088;28;19919;-72
2021/08/22 16:27:58;;;;;;;;;;;;;;;;;;5084016;28;19923;-72
2021/08/22 16:30:42;;;;;;;;;;;;;;;;;;5082523;28;20280;-72
2021/08/22 16:33:27;;;;;;;;;;;;;;;;;;5072407;28;19923;-72
2021/08/22 16:36:11;;;;;;;;;;;;;;;;;;5075489;28;20292;-72
2021/08/22 16:38:56;;;;;;;;;;;;;;;;;;5084079;28;19930;-72
2021/08/22 16:41:41;;;;;;;;;;;;;;;;;;5078852;28;19920;-72
2021/08/22 16:44:25;;;;;;;;;;;;;;;;;;5092872;28;19921;-72
2021/08/22 16:47:09;;;;;;;;;;;;;;;;;;5093159;28;19919;-72
2021/08/22 16:49:54;;;;;;;;;;;;;;;;;;5092743;28;19923;-72
2021/08/22 16:52:38;;;;;;;;;;;;;;;;;;5072619;28;19919;-72
2021/08/22 16:55:23;;;;;;;;;;;;;;;;;;5090308;28;19919;-72
2021/08/22 16:58:07;;;;;;;;;;;;;;;;;;5101772;28;19935;-72
2021/08/22 17:00:51;;;;;;;;;;;;;;;;;;5092551;28;19919;-72
2021/08/22 17:03:39;;;;;;;;;;;;;;;;;;5092864;28;19935;-72
2021/08/22 17:06:23;;;;;;;;;;;;;;;;;;5079157;28;19935;-72
2021/08/22 17:09:08;;;;;;;;;;;;;;;;;;5105286;28;19923;-72
2021/08/22 17:11:53;;;;;;;;;;;;;;;;;;5092336;28;19919;-72
2021/08/22 17:14:37;;;;;;;;;;;;;;;;;;5091500;28;20394;-72
2021/08/22 17:17:21;;;;;;;;;;;;;;;;;;5098295;28;19919;-72
2021/08/22 17:20:05;;;;;;;;;;;;;;;;;;5090114;28;19920;-72
2021/08/22 17:22:49;;;;;;;;;;;;;;;;;;5094410;28;19919;-72
2021/08/22 17:25:34;;;;;;;;;;;;;;;;;;5079879;28;20406;-71
2021/08/22 17:28:18;;;;;;;;;;;;;;;;;;5072142;28;19919;-72
2021/08/22 17:31:03;;;;;;;;;;;;;;;;;;5072245;28;20279;-72
2021/08/22 17:33:47;;;;;;;;;;;;;;;;;;5081496;28;20338;-72
2021/08/22 17:36:32;;;;;;;;;;;;;;;;;;5091722;28;19930;-72
2021/08/22 17:39:16;;;;;;;;;;;;;;;;;;5089040;28;19932;-75
2021/08/22 17:42:00;;;;;;;;;;;;;;;;;;5072334;28;19919;-72
2021/08/22 17:44:45;;;;;;;;;;;;;;;;;;5098222;28;19919;-72
2021/08/22 17:47:30;;;;;;;;;;;;;;;;;;5095181;28;19919;-73
2021/08/22 17:50:14;;;;;;;;;;;;;;;;;;5091067;28;19971;-72
2021/08/22 17:52:58;;;;;;;;;;;;;;;;;;5090032;28;20295;-72
2021/08/22 17:55:42;;;;;;;;;;;;;;;;;;5079980;28;20418;-72
2021/08/22 17:58:26;;;;;;;;;;;;;;;;;;5075412;28;19928;-73
2021/08/22 18:01:11;;;;;;;;;;;;;;;;;;5110907;28;19923;-72
2021/08/22 18:03:55;;;;;;;;;;;;;;;;;;5116216;28;19918;-71
2021/08/22 18:06:39;;;;;;;;;;;;;;;;;;5087555;28;19934;-72
2021/08/22 18:09:23;;;;;;;;;;;;;;;;;;5107087;28;19938;-72
2021/08/22 18:12:07;;;;;;;;;;;;;;;;;;5088178;28;19919;-72
2021/08/22 18:14:51;;;;;;;;;;;;;;;;;;5088649;28;20300;-72
2021/08/22 18:17:35;;;;;;;;;;;;;;;;;;5075785;28;19919;-72
2021/08/22 18:20:20;;;;;;;;;;;;;;;;;;5086268;28;19919;-72
2021/08/22 18:23:04;;;;;;;;;;;;;;;;;;5095203;28;19935;-72
2021/08/22 18:25:51;;;;;;;;;;;;;;;;;;5094549;28;19927;-72
2021/08/22 18:28:36;;;;;;;;;;;;;;;;;;5097749;28;19923;-72
2021/08/22 18:31:20;;;;;;;;;;;;;;;;;;5080353;28;19919;-72
2021/08/22 18:34:04;;;;;;;;;;;;;;;;;;5095316;28;19919;-72
2021/08/22 18:36:48;;;;;;;;;;;;;;;;;;5075040;28;19919;-72
2021/08/22 18:39:33;;;;;;;;;;;;;;;;;;5074119;28;20190;-72
2021/08/22 18:42:17;;;;;;;;;;;;;;;;;;5074806;28;20471;-71